Time;durP1;ratioP1;P1;durP2;ratioP2;P2;SDS_P1;SDS_P2;PMS_P1;PMS_P2;Temp;Humidity;BMP_temperature;BMP_pressure;BME280_temperature;BME280_humidity;BME280_pressure;Samples;Min_cycle;Max_cycle;Signal;HPM_P1;HPM_P2
2023/09/29 00:00:50;;;;;;;20.90;3.40;;;;;;;;;;5094395;28;20596;-40
2023/09/29 00:03:16;;;;;;;18.13;3.88;;;;;;;;;;5093985;28;20082;-40
2023/09/29 00:05:43;;;;;;;15.95;3.70;;;;;;;;;;5094315;28;20454;-39
2023/09/29 00:08:09;;;;;;;14.15;3.55;;;;;;;;;;5093951;28;20055;-40
2023/09/29 00:10:34;;;;;;;16.73;3.85;;;;;;;;;;5094503;28;20016;-41
2023/09/29 00:12:59;;;;;;;19.10;3.80;;;;;;;;;;5093895;28;20024;-41
2023/09/29 00:15:25;;;;;;;12.55;3.50;;;;;;;;;;5093638;28;20281;-40
2023/09/29 00:17:50;;;;;;;20.08;3.45;;;;;;;;;;5093808;28;20081;-41
2023/09/29 00:20:24;;;;;;;14.15;3.55;;;;;;;;;;5094044;28;20065;-41
2023/09/29 00:22:53;;;;;;;17.48;3.65;;;;;;;;;;5093500;28;20020;-39
2023/09/29 00:25:18;;;;;;;18.13;3.53;;;;;;;;;;5093751;28;20030;-39
2023/09/29 00:27:44;;;;;;;16.15;3.70;;;;;;;;;;5093626;28;20434;-40
2023/09/29 00:30:12;;;;;;;17.77;3.67;;;;;;;;;;5093626;28;20031;-39
2023/09/29 00:32:48;;;;;;;15.30;3.72;;;;;;;;;;5094284;28;20050;-41
2023/09/29 00:35:23;;;;;;;14.15;3.63;;;;;;;;;;5093940;28;20401;-40
2023/09/29 00:37:49;;;;;;;16.58;3.72;;;;;;;;;;5093859;28;20012;-40
2023/09/29 00:40:15;;;;;;;18.73;3.85;;;;;;;;;;5093810;28;20012;-41
2023/09/29 00:42:42;;;;;;;18.08;3.70;;;;;;;;;;5093766;28;20016;-41
2023/09/29 00:45:08;;;;;;;10.88;3.33;;;;;;;;;;5093630;28;20099;-40
2023/09/29 00:47:36;;;;;;;17.05;3.60;;;;;;;;;;5093751;28;20458;-40
2023/09/29 00:50:02;;;;;;;13.77;3.10;;;;;;;;;;5076089;28;20485;-40
2023/09/29 00:52:28;;;;;;;20.00;3.50;;;;;;;;;;5093418;28;20463;-40
2023/09/29 00:54:53;;;;;;;17.05;3.55;;;;;;;;;;5094114;28;20027;-40
2023/09/29 00:57:19;;;;;;;16.98;3.42;;;;;;;;;;5093723;28;20016;-40
2023/09/29 00:59:46;;;;;;;26.02;4.10;;;;;;;;;;5093620;28;20481;-40
2023/09/29 01:02:14;;;;;;;13.10;3.70;;;;;;;;;;5093573;28;20424;-40
2023/09/29 01:04:39;;;;;;;14.70;3.53;;;;;;;;;;5093571;28;20047;-41
2023/09/29 01:07:06;;;;;;;13.70;3.33;;;;;;;;;;5093294;28;20059;-40
2023/09/29 01:09:31;;;;;;;20.40;3.78;;;;;;;;;;5093451;28;20771;-40
2023/09/29 01:11:58;;;;;;;16.73;3.87;;;;;;;;;;5093247;28;20020;-40
2023/09/29 01:14:25;;;;;;;14.32;3.25;;;;;;;;;;5093393;28;20255;-40
2023/09/29 01:16:51;;;;;;;23.80;4.53;;;;;;;;;;5093034;28;20067;-40
2023/09/29 01:19:17;;;;;;;18.63;3.30;;;;;;;;;;5093492;28;20016;-40
2023/09/29 01:21:46;;;;;;;17.02;3.58;;;;;;;;;;5093355;28;20351;-40
2023/09/29 01:24:11;;;;;;;13.85;3.10;;;;;;;;;;5093693;28;20119;-41
2023/09/29 01:26:36;;;;;;;15.95;3.28;;;;;;;;;;5093141;28;20438;-40
2023/09/29 01:29:02;;;;;;;15.07;3.75;;;;;;;;;;5093093;28;20031;-41
2023/09/29 01:31:28;;;;;;;14.57;3.40;;;;;;;;;;5093322;28;20016;-40
2023/09/29 01:33:53;;;;;;;17.42;3.70;;;;;;;;;;5093015;28;20027;-40
2023/09/29 01:36:18;;;;;;;21.80;4.23;;;;;;;;;;5095639;28;20466;-40
2023/09/29 01:38:45;;;;;;;12.93;3.40;;;;;;;;;;5096983;28;20016;-41
2023/09/29 01:41:10;;;;;;;14.85;2.97;;;;;;;;;;5096761;28;20046;-40
2023/09/29 01:43:35;;;;;;;18.37;3.10;;;;;;;;;;5097319;28;20033;-40
2023/09/29 01:46:01;;;;;;;17.90;3.60;;;;;;;;;;5096696;28;20254;-40
2023/09/29 01:48:26;;;;;;;19.50;3.47;;;;;;;;;;5096887;28;20016;-40
2023/09/29 01:50:51;;;;;;;20.80;3.63;;;;;;;;;;5096805;28;20089;-41
2023/09/29 01:53:17;;;;;;;17.27;3.30;;;;;;;;;;5096489;28;20049;-40
2023/09/29 01:55:42;;;;;;;18.48;3.90;;;;;;;;;;5096482;28;20273;-41
2023/09/29 01:58:08;;;;;;;15.73;3.27;;;;;;;;;;5097028;28;20023;-40
2023/09/29 02:00:34;;;;;;;14.57;3.50;;;;;;;;;;5096382;28;20402;-41
2023/09/29 02:03:00;;;;;;;18.40;3.63;;;;;;;;;;5096904;28;20062;-40
2023/09/29 02:05:25;;;;;;;14.32;3.72;;;;;;;;;;5096296;28;20016;-40
2023/09/29 02:07:51;;;;;;;15.07;3.30;;;;;;;;;;5096249;28;20034;-40
2023/09/29 02:10:18;;;;;;;13.07;3.30;;;;;;;;;;5096521;28;20375;-41
2023/09/29 02:12:54;;;;;;;14.63;3.00;;;;;;;;;;5077955;28;20106;-40
2023/09/29 02:15:19;;;;;;;13.10;3.17;;;;;;;;;;5095821;28;20016;-39
2023/09/29 02:17:45;;;;;;;15.00;3.10;;;;;;;;;;5096281;28;20032;-44
2023/09/29 02:20:28;;;;;;;23.60;3.72;;;;;;;;;;5096259;28;20012;-41
2023/09/29 02:22:55;;;;;;;16.67;3.00;;;;;;;;;;5096255;28;20020;-41
2023/09/29 02:25:25;;;;;;;14.27;3.00;;;;;;;;;;5096554;28;20020;-40
2023/09/29 02:27:50;;;;;;;23.05;3.70;;;;;;;;;;5096176;28;20043;-40
2023/09/29 02:30:16;;;;;;;12.18;3.58;;;;;;;;;;5095735;28;20023;-40
2023/09/29 02:32:41;;;;;;;11.65;3.58;;;;;;;;;;5095985;28;20070;-40
2023/09/29 02:35:07;;;;;;;15.15;3.45;;;;;;;;;;5095780;28;20434;-41
2023/09/29 02:37:33;;;;;;;17.60;4.07;;;;;;;;;;5095656;28;20008;-41
2023/09/29 02:39:58;;;;;;;17.67;3.42;;;;;;;;;;5095998;28;20023;-40
2023/09/29 02:42:23;;;;;;;18.50;3.83;;;;;;;;;;5095906;28;20020;-40
2023/09/29 02:44:49;;;;;;;15.52;3.70;;;;;;;;;;5096084;28;20577;-40
2023/09/29 02:47:14;;;;;;;15.67;3.43;;;;;;;;;;5095481;28;20405;-40
2023/09/29 02:49:40;;;;;;;13.75;3.53;;;;;;;;;;5095736;28;20300;-40
2023/09/29 02:52:06;;;;;;;14.85;3.35;;;;;;;;;;5095293;28;20028;-41
2023/09/29 02:54:31;;;;;;;17.08;3.67;;;;;;;;;;5095616;28;20031;-40
2023/09/29 02:56:56;;;;;;;16.08;3.53;;;;;;;;;;5095350;28;20451;-41
2023/09/29 02:59:23;;;;;;;14.77;3.50;;;;;;;;;;5095298;28;20459;-41
2023/09/29 03:01:49;;;;;;;15.32;3.72;;;;;;;;;;5095477;28;20393;-40
2023/09/29 03:04:15;;;;;;;16.83;3.75;;;;;;;;;;5095768;28;20039;-40
2023/09/29 03:06:40;;;;;;;14.88;3.67;;;;;;;;;;5095043;28;20026;-40
2023/09/29 03:09:06;;;;;;;15.77;3.53;;;;;;;;;;5095107;28;20028;-40
2023/09/29 03:11:31;;;;;;;17.15;3.47;;;;;;;;;;5094893;28;20683;-40
2023/09/29 03:13:56;;;;;;;17.73;3.30;;;;;;;;;;5076714;28;20028;-40
2023/09/29 03:16:25;;;;;;;13.57;3.58;;;;;;;;;;5094831;28;20089;-40
2023/09/29 03:18:50;;;;;;;16.35;3.72;;;;;;;;;;5095626;28;20095;-41
2023/09/29 03:21:15;;;;;;;11.85;3.63;;;;;;;;;;5094846;28;20059;-40
2023/09/29 03:23:42;;;;;;;13.63;4.22;;;;;;;;;;5094809;28;20067;-40
2023/09/29 03:26:09;;;;;;;12.45;3.50;;;;;;;;;;5094990;28;20386;-40
2023/09/29 03:28:38;;;;;;;13.80;3.58;;;;;;;;;;5094677;28;20031;-40
2023/09/29 03:31:06;;;;;;;12.95;3.85;;;;;;;;;;5094875;28;20030;-41
2023/09/29 03:33:32;;;;;;;10.38;3.30;;;;;;;;;;5094556;28;20374;-41
2023/09/29 03:35:57;;;;;;;14.45;3.88;;;;;;;;;;5094935;28;20022;-40
2023/09/29 03:38:25;;;;;;;18.15;3.42;;;;;;;;;;5095056;28;20016;-40
2023/09/29 03:40:50;;;;;;;15.18;3.58;;;;;;;;;;5094785;28;20065;-40
2023/09/29 03:43:16;;;;;;;11.52;3.55;;;;;;;;;;5094459;28;20020;-41
2023/09/29 03:45:41;;;;;;;10.32;3.30;;;;;;;;;;5094696;28;20016;-40
2023/09/29 03:48:06;;;;;;;14.67;3.87;;;;;;;;;;5094378;28;20041;-41
2023/09/29 03:50:35;;;;;;;13.48;3.83;;;;;;;;;;5094379;28;20261;-40
2023/09/29 03:53:00;;;;;;;15.30;4.10;;;;;;;;;;5094482;28;20339;-40
2023/09/29 03:55:27;;;;;;;15.45;3.55;;;;;;;;;;5094230;28;20042;-40
2023/09/29 03:57:52;;;;;;;17.17;3.85;;;;;;;;;;5094053;28;20027;-40
2023/09/29 04:00:18;;;;;;;14.55;4.00;;;;;;;;;;5094482;28;20362;-40
2023/09/29 04:02:43;;;;;;;12.75;3.80;;;;;;;;;;5094040;28;20020;-40
2023/09/29 04:05:09;;;;;;;12.38;3.65;;;;;;;;;;5094034;28;20020;-41
2023/09/29 04:07:36;;;;;;;13.13;3.83;;;;;;;;;;5094321;28;20099;-40
2023/09/29 04:10:01;;;;;;;11.52;3.60;;;;;;;;;;5094298;28;20347;-41
2023/09/29 04:12:26;;;;;;;18.25;4.15;;;;;;;;;;5094427;28;20019;-40
2023/09/29 04:14:53;;;;;;;11.97;3.60;;;;;;;;;;5075769;28;20023;-40
2023/09/29 04:17:18;;;;;;;16.77;3.60;;;;;;;;;;5093658;28;20278;-40
2023/09/29 04:19:43;;;;;;;11.15;3.88;;;;;;;;;;5094058;28;20016;-47
2023/09/29 04:22:09;;;;;;;17.38;4.18;;;;;;;;;;5094096;28;20020;-41
2023/09/29 04:24:34;;;;;;;15.13;4.15;;;;;;;;;;5093812;28;20051;-40
2023/09/29 04:26:59;;;;;;;15.60;4.33;;;;;;;;;;5093962;28;20116;-40
2023/09/29 04:29:24;;;;;;;13.85;3.70;;;;;;;;;;5093720;28;20258;-40
2023/09/29 04:31:49;;;;;;;16.53;4.03;;;;;;;;;;5093729;28;20008;-40
2023/09/29 04:34:15;;;;;;;10.30;3.88;;;;;;;;;;5075427;28;20289;-39
2023/09/29 04:36:41;;;;;;;12.93;3.78;;;;;;;;;;5093572;28;20029;-40
2023/09/29 04:39:07;;;;;;;12.93;3.80;;;;;;;;;;5094132;28;20052;-40
2023/09/29 04:41:32;;;;;;;12.50;3.92;;;;;;;;;;5094155;28;20095;-41
2023/09/29 04:43:57;;;;;;;13.30;4.10;;;;;;;;;;5093867;28;20031;-39
2023/09/29 04:46:23;;;;;;;9.93;3.60;;;;;;;;;;5093696;28;20281;-40
2023/09/29 04:48:52;;;;;;;12.18;3.90;;;;;;;;;;5093444;28;20505;-40
2023/09/29 04:51:18;;;;;;;9.25;3.53;;;;;;;;;;5093705;28;20103;-41
2023/09/29 04:53:43;;;;;;;9.02;3.65;;;;;;;;;;5093671;28;20103;-40
2023/09/29 04:56:08;;;;;;;11.63;3.80;;;;;;;;;;5093750;28;20016;-40
2023/09/29 04:58:33;;;;;;;11.80;3.90;;;;;;;;;;5093454;28;20100;-40
2023/09/29 05:00:59;;;;;;;14.48;4.22;;;;;;;;;;5093566;28;20024;-40
2023/09/29 05:03:24;;;;;;;13.02;3.63;;;;;;;;;;5093915;28;20451;-40
2023/09/29 05:05:49;;;;;;;12.05;3.50;;;;;;;;;;5093380;28;20028;-40
2023/09/29 05:08:15;;;;;;;12.93;3.63;;;;;;;;;;5093616;28;20016;-41
2023/09/29 05:10:40;;;;;;;10.80;3.75;;;;;;;;;;5077045;28;20030;-41
2023/09/29 05:13:06;;;;;;;8.80;3.37;;;;;;;;;;5097254;28;20110;-40
2023/09/29 05:15:32;;;;;;;11.88;3.60;;;;;;;;;;5097027;28;20266;-41
2023/09/29 05:17:57;;;;;;;12.60;3.53;;;;;;;;;;5097488;28;20016;-41
2023/09/29 05:20:23;;;;;;;16.02;3.88;;;;;;;;;;5097801;28;20020;-40
2023/09/29 05:22:48;;;;;;;11.23;3.42;;;;;;;;;;5097456;28;20020;-40
2023/09/29 05:25:14;;;;;;;10.37;3.87;;;;;;;;;;5097096;28;20070;-40
2023/09/29 05:27:39;;;;;;;13.57;3.43;;;;;;;;;;5097434;28;20028;-41
2023/09/29 05:30:04;;;;;;;11.47;3.83;;;;;;;;;;5096596;28;20278;-40
2023/09/29 05:32:30;;;;;;;9.10;3.08;;;;;;;;;;5096761;28;20286;-40
2023/09/29 05:34:55;;;;;;;9.23;3.40;;;;;;;;;;5096791;28;20478;-40
2023/09/29 05:37:21;;;;;;;12.97;4.20;;;;;;;;;;5097417;28;20043;-40
2023/09/29 05:39:47;;;;;;;11.73;3.50;;;;;;;;;;5097070;28;20066;-40
2023/09/29 05:42:12;;;;;;;17.08;4.10;;;;;;;;;;5097492;28;20032;-40
2023/09/29 05:44:37;;;;;;;9.90;3.67;;;;;;;;;;5097266;28;20051;-40
2023/09/29 05:47:03;;;;;;;10.60;3.40;;;;;;;;;;5097488;28;20013;-39
2023/09/29 05:49:28;;;;;;;8.85;3.35;;;;;;;;;;5097454;28;20349;-40
2023/09/29 05:51:53;;;;;;;7.03;3.03;;;;;;;;;;5097222;28;20020;-41
2023/09/29 05:54:19;;;;;;;13.65;3.90;;;;;;;;;;5097117;28;20353;-41
2023/09/29 05:56:44;;;;;;;11.00;3.67;;;;;;;;;;5097057;28;20095;-41
2023/09/29 05:59:09;;;;;;;11.63;3.50;;;;;;;;;;5096777;28;20739;-41
2023/09/29 06:01:34;;;;;;;10.97;3.37;;;;;;;;;;5096731;28;20498;-41
2023/09/29 06:03:59;;;;;;;8.60;3.13;;;;;;;;;;5096643;28;20260;-41
2023/09/29 06:06:25;;;;;;;11.32;3.75;;;;;;;;;;5096242;28;20020;-41
2023/09/29 06:08:50;;;;;;;10.07;3.35;;;;;;;;;;5096313;28;20055;-41
2023/09/29 06:11:15;;;;;;;8.73;3.53;;;;;;;;;;5078109;28;20028;-39
2023/09/29 06:13:42;;;;;;;7.15;3.38;;;;;;;;;;5096410;28;20031;-41
2023/09/29 06:16:08;;;;;;;10.25;3.60;;;;;;;;;;5096007;28;20097;-40
2023/09/29 06:18:33;;;;;;;7.55;3.10;;;;;;;;;;5096306;28;20443;-40
2023/09/29 06:20:58;;;;;;;7.97;3.03;;;;;;;;;;5095628;28;20012;-40
2023/09/29 06:23:23;;;;;;;7.00;3.13;;;;;;;;;;5096195;28;20254;-41
2023/09/29 06:25:58;;;;;;;8.05;3.28;;;;;;;;;;5095923;28;20321;-41
2023/09/29 06:28:24;;;;;;;8.30;3.22;;;;;;;;;;5095970;28;20020;-41
2023/09/29 06:30:55;;;;;;;13.13;4.65;;;;;;;;;;5096044;28;20031;-41
2023/09/29 06:33:20;;;;;;;9.48;3.20;;;;;;;;;;5096007;28;20024;-41
2023/09/29 06:35:45;;;;;;;7.67;2.93;;;;;;;;;;5096022;28;20386;-41
2023/09/29 06:38:11;;;;;;;8.57;3.43;;;;;;;;;;5095687;28;20724;-41
2023/09/29 06:40:36;;;;;;;8.30;3.30;;;;;;;;;;5095865;28;20261;-40
2023/09/29 06:43:01;;;;;;;10.80;3.60;;;;;;;;;;5095806;28;20031;-40
2023/09/29 06:45:29;;;;;;;11.32;3.03;;;;;;;;;;5095815;28;20110;-41
2023/09/29 06:47:55;;;;;;;7.00;2.78;;;;;;;;;;5095791;28;20108;-39
2023/09/29 06:50:20;;;;;;;7.22;2.80;;;;;;;;;;5077371;28;20470;-40
2023/09/29 06:52:45;;;;;;;8.27;3.17;;;;;;;;;;5095921;28;20393;-40
2023/09/29 06:55:12;;;;;;;9.03;3.00;;;;;;;;;;5095812;28;20767;-40
2023/09/29 06:57:38;;;;;;;10.50;3.40;;;;;;;;;;5095714;28;20308;-40
2023/09/29 07:00:06;;;;;;;8.70;2.80;;;;;;;;;;5095322;28;20024;-40
2023/09/29 07:02:31;;;;;;;7.85;2.70;;;;;;;;;;5094089;28;20546;-40
2023/09/29 07:04:57;;;;;;;11.02;2.92;;;;;;;;;;5095795;28;20043;-40
2023/09/29 07:07:22;;;;;;;9.20;2.67;;;;;;;;;;5095197;28;20048;-40
2023/09/29 07:09:47;;;;;;;6.80;2.42;;;;;;;;;;5095775;28;20347;-40
2023/09/29 07:12:12;;;;;;;6.68;2.97;;;;;;;;;;5095096;28;20031;-41
2023/09/29 07:14:38;;;;;;;7.77;2.97;;;;;;;;;;5095010;28;20032;-40
2023/09/29 07:17:03;;;;;;;8.07;2.90;;;;;;;;;;5095615;28;20616;-40
2023/09/29 07:19:30;;;;;;;8.27;2.70;;;;;;;;;;5095867;28;20048;-41
2023/09/29 07:21:56;;;;;;;6.45;2.70;;;;;;;;;;5095497;28;20012;-40
2023/09/29 07:24:22;;;;;;;4.80;2.60;;;;;;;;;;5094875;28;20016;-41
2023/09/29 07:26:47;;;;;;;6.03;2.97;;;;;;;;;;5094877;28;20028;-40
2023/09/29 07:29:12;;;;;;;6.87;2.80;;;;;;;;;;5095116;28;20250;-40
2023/09/29 07:31:46;;;;;;;6.47;2.80;;;;;;;;;;5095335;28;20030;-41
2023/09/29 07:34:12;;;;;;;6.50;2.90;;;;;;;;;;5093915;28;20278;-41
2023/09/29 07:36:39;;;;;;;5.97;2.70;;;;;;;;;;5094762;28;20077;-40
2023/09/29 07:39:04;;;;;;;12.52;3.00;;;;;;;;;;5094547;28;20022;-40
2023/09/29 07:41:29;;;;;;;6.43;2.80;;;;;;;;;;5076430;28;20016;-40
2023/09/29 07:43:55;;;;;;;9.90;2.80;;;;;;;;;;5094508;28;20028;-40
2023/09/29 07:46:20;;;;;;;6.90;2.70;;;;;;;;;;5095348;28;20265;-41
2023/09/29 07:48:45;;;;;;;8.18;2.70;;;;;;;;;;5094460;28;20382;-41
2023/09/29 07:51:10;;;;;;;6.17;2.70;;;;;;;;;;5094471;28;20032;-41
2023/09/29 07:53:35;;;;;;;8.50;2.77;;;;;;;;;;5094587;28;20027;-41
2023/09/29 07:56:01;;;;;;;7.10;2.80;;;;;;;;;;5094592;28;20032;-41
2023/09/29 07:58:26;;;;;;;8.10;2.80;;;;;;;;;;5094263;28;20249;-41
2023/09/29 08:00:51;;;;;;;6.75;2.72;;;;;;;;;;5076409;28;20724;-41
2023/09/29 08:03:16;;;;;;;7.45;2.60;;;;;;;;;;5094270;28;20027;-41
2023/09/29 08:05:42;;;;;;;9.48;2.72;;;;;;;;;;5094769;28;20095;-41
2023/09/29 08:08:07;;;;;;;9.30;3.10;;;;;;;;;;5094160;28;20016;-41
2023/09/29 08:10:32;;;;;;;5.57;2.60;;;;;;;;;;5094425;28;20067;-41
2023/09/29 08:12:57;;;;;;;7.80;2.75;;;;;;;;;;5093833;28;20323;-41
2023/09/29 08:15:24;;;;;;;8.68;3.03;;;;;;;;;;5093651;28;20019;-40
2023/09/29 08:17:49;;;;;;;7.53;3.00;;;;;;;;;;5094119;28;20081;-40
2023/09/29 08:20:15;;;;;;;6.72;2.45;;;;;;;;;;5093868;28;20454;-39
2023/09/29 08:22:40;;;;;;;7.22;2.65;;;;;;;;;;5093955;28;20024;-40
2023/09/29 08:25:07;;;;;;;12.37;2.60;;;;;;;;;;5093742;28;20030;-40
2023/09/29 08:27:33;;;;;;;11.60;2.95;;;;;;;;;;5093709;28;20286;-48
2023/09/29 08:29:58;;;;;;;11.05;2.90;;;;;;;;;;5093728;28;20412;-41
2023/09/29 08:32:23;;;;;;;8.63;2.80;;;;;;;;;;5092236;28;20026;-41
2023/09/29 08:34:48;;;;;;;8.00;2.97;;;;;;;;;;5094272;28;20333;-41
2023/09/29 08:37:14;;;;;;;6.93;2.90;;;;;;;;;;5093872;28;20346;-41
2023/09/29 08:39:39;;;;;;;9.77;2.97;;;;;;;;;;5092924;28;20748;-42
2023/09/29 08:42:08;;;;;;;8.27;3.15;;;;;;;;;;5091554;28;20028;-42
2023/09/29 08:44:34;;;;;;;7.95;3.00;;;;;;;;;;5091054;28;20012;-40
2023/09/29 08:47:01;;;;;;;9.45;2.92;;;;;;;;;;5091228;28;20039;-42
2023/09/29 08:49:26;;;;;;;7.75;3.20;;;;;;;;;;5091154;28;20017;-41
2023/09/29 08:51:51;;;;;;;5.60;3.13;;;;;;;;;;5091265;28;20024;-47
2023/09/29 08:54:17;;;;;;;12.60;3.05;;;;;;;;;;5091495;28;20024;-41
2023/09/29 08:56:43;;;;;;;7.05;2.70;;;;;;;;;;5093317;28;20077;-41
2023/09/29 08:59:08;;;;;;;8.23;3.00;;;;;;;;;;5093585;28;20396;-41
2023/09/29 09:01:33;;;;;;;6.00;3.03;;;;;;;;;;5093342;28;20076;-41
2023/09/29 09:03:59;;;;;;;8.03;3.13;;;;;;;;;;5093435;28;20103;-41
2023/09/29 09:06:25;;;;;;;9.80;3.13;;;;;;;;;;5093334;28;20258;-40
2023/09/29 09:08:50;;;;;;;7.43;2.80;;;;;;;;;;5093094;28;20024;-41
2023/09/29 09:11:16;;;;;;;9.00;3.00;;;;;;;;;;5093857;28;20031;-41
2023/09/29 09:13:41;;;;;;;10.20;2.97;;;;;;;;;;5093876;28;20032;-41
2023/09/29 09:16:07;;;;;;;9.13;3.28;;;;;;;;;;5093220;28;20115;-40
2023/09/29 09:18:32;;;;;;;10.88;3.17;;;;;;;;;;5093167;28;20020;-41
2023/09/29 09:20:58;;;;;;;10.23;3.15;;;;;;;;;;5093162;28;20024;-40
2023/09/29 09:23:23;;;;;;;8.77;2.97;;;;;;;;;;5093533;28;20085;-41
2023/09/29 09:25:48;;;;;;;7.47;3.28;;;;;;;;;;5093498;28;20016;-41
2023/09/29 09:28:17;;;;;;;9.63;2.90;;;;;;;;;;5093151;28;20027;-41
2023/09/29 09:30:42;;;;;;;11.48;3.17;;;;;;;;;;5093433;28;20023;-42
2023/09/29 09:33:16;;;;;;;8.85;2.70;;;;;;;;;;5093311;28;20024;-41
2023/09/29 09:35:42;;;;;;;5.63;2.70;;;;;;;;;;5093065;28;20023;-41
2023/09/29 09:38:08;;;;;;;10.23;3.00;;;;;;;;;;5093317;28;20018;-41
2023/09/29 09:40:34;;;;;;;8.10;2.45;;;;;;;;;;5092929;28;20099;-41
2023/09/29 09:43:03;;;;;;;6.38;2.90;;;;;;;;;;5093316;28;20063;-42
2023/09/29 09:45:39;;;;;;;4.95;2.60;;;;;;;;;;5093018;28;20024;-41
2023/09/29 09:48:06;;;;;;;9.23;2.55;;;;;;;;;;5093191;28;20387;-42
2023/09/29 09:50:32;;;;;;;6.93;2.40;;;;;;;;;;5093220;28;20115;-41
2023/09/29 09:52:59;;;;;;;6.00;2.47;;;;;;;;;;5093325;28;20024;-41
2023/09/29 09:55:36;;;;;;;7.22;2.65;;;;;;;;;;5093223;28;20016;-42
2023/09/29 09:58:10;;;;;;;6.70;2.60;;;;;;;;;;5096747;28;20413;-39
2023/09/29 10:00:36;;;;;;;8.73;2.58;;;;;;;;;;5096762;28;20358;-41
2023/09/29 10:03:03;;;;;;;9.30;2.65;;;;;;;;;;5096373;28;20026;-40
2023/09/29 10:05:31;;;;;;;8.23;2.35;;;;;;;;;;5096587;28;20016;-40
2023/09/29 10:08:02;;;;;;;4.05;2.20;;;;;;;;;;5096487;28;20073;-41
2023/09/29 10:10:31;;;;;;;6.43;2.60;;;;;;;;;;5096538;28;20016;-41
2023/09/29 10:12:57;;;;;;;9.80;2.50;;;;;;;;;;5096357;28;20458;-40
2023/09/29 10:15:22;;;;;;;6.43;2.65;;;;;;;;;;5077929;28;20023;-40
2023/09/29 10:17:49;;;;;;;5.97;2.30;;;;;;;;;;5096082;28;20031;-48
2023/09/29 10:20:21;;;;;;;6.15;2.95;;;;;;;;;;5096358;28;20096;-41
2023/09/29 10:22:52;;;;;;;5.30;2.67;;;;;;;;;;5096025;28;20027;-42
2023/09/29 10:25:20;;;;;;;4.85;2.67;;;;;;;;;;5096334;28;20024;-42
2023/09/29 10:27:49;;;;;;;4.95;2.95;;;;;;;;;;5096144;28;20506;-46
2023/09/29 10:30:16;;;;;;;7.20;3.17;;;;;;;;;;5095820;28;20106;-40
2023/09/29 10:32:43;;;;;;;6.53;2.80;;;;;;;;;;5095774;28;20028;-41
2023/09/29 10:35:15;;;;;;;7.90;3.17;;;;;;;;;;5095992;28;20397;-40
2023/09/29 10:37:45;;;;;;;6.77;2.63;;;;;;;;;;5096003;28;20526;-41
2023/09/29 10:40:20;;;;;;;8.98;2.80;;;;;;;;;;5095991;28;20382;-41
2023/09/29 10:42:46;;;;;;;8.77;3.10;;;;;;;;;;5095562;28;20023;-41
2023/09/29 10:45:11;;;;;;;5.85;3.40;;;;;;;;;;5096039;28;20023;-42
2023/09/29 10:47:37;;;;;;;6.95;3.50;;;;;;;;;;5095650;28;20397;-41
2023/09/29 10:50:06;;;;;;;6.68;3.63;;;;;;;;;;5095855;28;20042;-41
2023/09/29 10:52:31;;;;;;;9.13;3.65;;;;;;;;;;5095322;28;20091;-41
2023/09/29 10:54:58;;;;;;;6.97;3.93;;;;;;;;;;5095980;28;20124;-41
2023/09/29 10:57:25;;;;;;;6.00;3.80;;;;;;;;;;5095351;28;20017;-41
2023/09/29 10:59:52;;;;;;;9.50;3.80;;;;;;;;;;5095525;28;20112;-40
2023/09/29 11:02:17;;;;;;;7.90;4.10;;;;;;;;;;5095535;28;20024;-41
2023/09/29 11:04:46;;;;;;;6.05;3.78;;;;;;;;;;5095553;28;20042;-41
2023/09/29 11:07:12;;;;;;;7.47;3.78;;;;;;;;;;5094727;28;20092;-41
2023/09/29 11:09:37;;;;;;;6.35;3.90;;;;;;;;;;5095173;28;20020;-41
2023/09/29 11:12:03;;;;;;;6.05;3.45;;;;;;;;;;5095395;28;20020;-41
2023/09/29 11:14:36;;;;;;;7.65;3.42;;;;;;;;;;5076748;28;20016;-41
2023/09/29 11:17:01;;;;;;;5.75;3.38;;;;;;;;;;5094864;28;20113;-41
2023/09/29 11:19:30;;;;;;;5.63;2.42;;;;;;;;;;5095220;28;20016;-40
2023/09/29 11:21:55;;;;;;;6.22;2.60;;;;;;;;;;5095113;28;20019;-41
2023/09/29 11:24:20;;;;;;;7.37;1.90;;;;;;;;;;5094831;28;20497;-42
2023/09/29 11:26:51;;;;;;;5.00;2.00;;;;;;;;;;5095917;28;20016;-42
2023/09/29 11:29:23;;;;;;;8.82;2.35;;;;;;;;;;5094807;28;20258;-42
2023/09/29 11:31:49;;;;;;;15.05;2.10;;;;;;;;;;5094688;28;20016;-43
2023/09/29 11:34:15;;;;;;;6.43;1.98;;;;;;;;;;5094650;28;20020;-41
2023/09/29 11:36:43;;;;;;;6.80;2.10;;;;;;;;;;5094941;28;20520;-41
2023/09/29 11:39:09;;;;;;;8.88;2.50;;;;;;;;;;5094861;28;20371;-42
2023/09/29 11:41:34;;;;;;;10.23;2.67;;;;;;;;;;5094545;28;20020;-40
2023/09/29 11:43:59;;;;;;;5.68;2.40;;;;;;;;;;5094769;28;20024;-40
2023/09/29 11:46:24;;;;;;;9.53;1.93;;;;;;;;;;5094723;28;20474;-40
2023/09/29 11:48:50;;;;;;;4.80;1.85;;;;;;;;;;5094285;28;20740;-40
2023/09/29 11:51:15;;;;;;;5.43;1.30;;;;;;;;;;5094895;28;20020;-40
2023/09/29 11:53:42;;;;;;;3.58;1.20;;;;;;;;;;5094552;28;20362;-41
2023/09/29 11:56:07;;;;;;;2.08;1.05;;;;;;;;;;5094267;28;20024;-46
2023/09/29 11:58:33;;;;;;;4.07;1.10;;;;;;;;;;5094465;28;20022;-40
2023/09/29 12:01:00;;;;;;;8.30;1.57;;;;;;;;;;5094169;28;20020;-42
2023/09/29 12:03:27;;;;;;;7.50;1.83;;;;;;;;;;5094019;28;20261;-42
2023/09/29 12:05:53;;;;;;;5.15;1.40;;;;;;;;;;5094330;28;20089;-42
2023/09/29 12:08:19;;;;;;;5.63;1.42;;;;;;;;;;5094216;28;20424;-41
2023/09/29 12:10:44;;;;;;;3.72;1.30;;;;;;;;;;5094329;28;20114;-41
2023/09/29 12:13:15;;;;;;;6.47;1.02;;;;;;;;;;5094207;28;20115;-42
2023/09/29 12:15:41;;;;;;;5.63;1.48;;;;;;;;;;5093744;28;20044;-41
2023/09/29 12:18:06;;;;;;;5.32;1.10;;;;;;;;;;5094454;28;20030;-42
2023/09/29 12:20:32;;;;;;;4.50;1.70;;;;;;;;;;5093562;28;20140;-41
2023/09/29 12:23:00;;;;;;;5.70;1.63;;;;;;;;;;5093822;28;20030;-41
2023/09/29 12:25:26;;;;;;;6.78;1.63;;;;;;;;;;5093722;28;20016;-42
2023/09/29 12:27:51;;;;;;;8.50;1.60;;;;;;;;;;5094474;28;20031;-41
2023/09/29 12:30:17;;;;;;;6.57;1.63;;;;;;;;;;5093576;28;20269;-42
2023/09/29 12:32:43;;;;;;;6.70;1.45;;;;;;;;;;5093479;28;20012;-41
2023/09/29 12:35:15;;;;;;;7.53;1.75;;;;;;;;;;5093674;28;20024;-45
2023/09/29 12:37:42;;;;;;;5.38;1.73;;;;;;;;;;5093890;28;20027;-42
2023/09/29 12:40:11;;;;;;;7.57;1.80;;;;;;;;;;5093674;28;20016;-41
2023/09/29 12:42:36;;;;;;;7.50;1.75;;;;;;;;;;5093793;28;20016;-41
2023/09/29 12:45:02;;;;;;;5.03;1.60;;;;;;;;;;5093489;28;20031;-41
2023/09/29 12:47:27;;;;;;;7.18;1.98;;;;;;;;;;5093654;28;20024;-41
2023/09/29 12:49:52;;;;;;;9.00;2.00;;;;;;;;;;5093400;28;20027;-41
2023/09/29 12:52:18;;;;;;;9.40;2.25;;;;;;;;;;5093479;28;20020;-40
2023/09/29 12:54:45;;;;;;;8.13;2.40;;;;;;;;;;5093221;28;20015;-41
2023/09/29 12:57:10;;;;;;;7.95;2.33;;;;;;;;;;5094135;28;20024;-42
2023/09/29 12:59:36;;;;;;;8.23;2.05;;;;;;;;;;5093493;28;20061;-40
2023/09/29 13:02:04;;;;;;;8.32;2.08;;;;;;;;;;5093550;28;20103;-41
2023/09/29 13:04:30;;;;;;;11.75;2.47;;;;;;;;;;5093577;28;20077;-40
2023/09/29 13:06:55;;;;;;;7.75;2.33;;;;;;;;;;5093925;28;20024;-40
2023/09/29 13:09:20;;;;;;;12.23;2.97;;;;;;;;;;5093393;28;20070;-41
2023/09/29 13:11:50;;;;;;;12.35;2.28;;;;;;;;;;5093327;28;20020;-41
2023/09/29 13:14:15;;;;;;;8.70;2.30;;;;;;;;;;5093019;28;20468;-41
2023/09/29 13:16:41;;;;;;;10.07;2.30;;;;;;;;;;5092865;28;20068;-41
2023/09/29 13:19:06;;;;;;;10.77;2.53;;;;;;;;;;5093636;28;20024;-41
2023/09/29 13:21:33;;;;;;;9.00;2.80;;;;;;;;;;5093222;28;20016;-41
2023/09/29 13:23:59;;;;;;;14.27;2.95;;;;;;;;;;5093364;28;20446;-41
2023/09/29 13:26:24;;;;;;;10.68;2.60;;;;;;;;;;5093257;28;20023;-41
2023/09/29 13:28:50;;;;;;;14.57;3.20;;;;;;;;;;5092991;28;20027;-41
2023/09/29 13:31:15;;;;;;;11.13;2.67;;;;;;;;;;5094627;28;20253;-41
2023/09/29 13:33:40;;;;;;;9.77;2.80;;;;;;;;;;5097368;28;20077;-41
2023/09/29 13:36:05;;;;;;;13.93;2.70;;;;;;;;;;5097218;28;20016;-41
2023/09/29 13:38:31;;;;;;;13.68;3.00;;;;;;;;;;5097121;28;20254;-42
2023/09/29 13:40:56;;;;;;;13.15;3.00;;;;;;;;;;5097155;28;20340;-40
2023/09/29 13:43:22;;;;;;;10.68;2.65;;;;;;;;;;5096739;28;20024;-41
2023/09/29 13:45:47;;;;;;;15.32;3.17;;;;;;;;;;5097017;28;20045;-40
2023/09/29 13:48:12;;;;;;;14.07;3.15;;;;;;;;;;5078665;28;20089;-41
2023/09/29 13:50:37;;;;;;;18.27;3.60;;;;;;;;;;5096906;28;20020;-40
2023/09/29 13:53:03;;;;;;;17.33;3.27;;;;;;;;;;5096507;28;20468;-41
2023/09/29 13:55:28;;;;;;;13.82;2.97;;;;;;;;;;5096882;28;20023;-41
2023/09/29 13:57:53;;;;;;;16.43;3.10;;;;;;;;;;5097554;28;20439;-41
2023/09/29 14:00:21;;;;;;;11.63;2.73;;;;;;;;;;5096500;28;20020;-41
2023/09/29 14:02:47;;;;;;;14.90;2.80;;;;;;;;;;5096619;28;20103;-40
2023/09/29 14:05:12;;;;;;;13.95;3.20;;;;;;;;;;5096249;28;20054;-41
2023/09/29 14:07:37;;;;;;;13.63;3.20;;;;;;;;;;5096670;28;20058;-40
2023/09/29 14:10:03;;;;;;;9.37;2.87;;;;;;;;;;5096321;28;20253;-41
2023/09/29 14:12:29;;;;;;;8.85;2.60;;;;;;;;;;5096372;28;20112;-41
2023/09/29 14:14:54;;;;;;;8.52;2.63;;;;;;;;;;5096507;28;20024;-41
2023/09/29 14:17:20;;;;;;;11.13;2.60;;;;;;;;;;5096092;28;20051;-41
2023/09/29 14:19:45;;;;;;;10.73;2.67;;;;;;;;;;5096330;28;20020;-41
2023/09/29 14:22:10;;;;;;;9.82;2.47;;;;;;;;;;5077922;28;20107;-41
2023/09/29 14:24:36;;;;;;;12.50;2.60;;;;;;;;;;5096015;28;20035;-42
2023/09/29 14:27:01;;;;;;;10.05;2.90;;;;;;;;;;5096015;28;20250;-41
2023/09/29 14:29:26;;;;;;;13.52;2.72;;;;;;;;;;5096438;28;20027;-42